sensor_id;sensor_type;location;lat;lon;timestamp;temperature;humidity
39347;DHT22;26262;49.836;6.632;2023-02-27T00:01:23;-0.10;99.90
39347;DHT22;26262;49.836;6.632;2023-02-27T00:03:49;-0.10;99.90
39347;DHT22;26262;49.836;6.632;2023-02-27T00:06:14;-0.20;99.90
39347;DHT22;26262;49.836;6.632;2023-02-27T00:08:42;-0.20;99.90
39347;DHT22;26262;49.836;6.632;2023-02-27T00:11:08;-0.10;99.90
39347;DHT22;26262;49.836;6.632;2023-02-27T00:13:34;-0.20;99.90
39347;DHT22;26262;49.836;6.632;2023-02-27T00:16:00;-0.20;99.90
39347;DHT22;26262;49.836;6.632;2023-02-27T00:18:25;-0.10;99.90
39347;DHT22;26262;49.836;6.632;2023-02-27T00:20:51;-0.10;99.90
39347;DHT22;26262;49.836;6.632;2023-02-27T00:23:16;-0.20;99.90
39347;DHT22;26262;49.836;6.632;2023-02-27T00:25:42;-0.40;99.90
39347;DHT22;26262;49.836;6.632;2023-02-27T00:28:08;-0.30;99.90
39347;DHT22;26262;49.836;6.632;2023-02-27T00:30:33;-0.20;99.90
39347;DHT22;26262;49.836;6.632;2023-02-27T00:32:59;-0.20;99.90
39347;DHT22;26262;49.836;6.632;2023-02-27T00:35:24;-0.20;99.90
39347;DHT22;26262;49.836;6.632;2023-02-27T00:37:50;-0.20;99.90
39347;DHT22;26262;49.836;6.632;2023-02-27T00:40:16;-0.20;99.90
39347;DHT22;26262;49.836;6.632;2023-02-27T00:42:42;-0.30;99.90
39347;DHT22;26262;49.836;6.632;2023-02-27T00:45:08;-0.30;99.90
39347;DHT22;26262;49.836;6.632;2023-02-27T00:47:34;-0.40;99.90
39347;DHT22;26262;49.836;6.632;2023-02-27T00:50:01;-0.30;99.90
39347;DHT22;26262;49.836;6.632;2023-02-27T00:52:26;-0.40;99.90
39347;DHT22;26262;49.836;6.632;2023-02-27T00:54:52;-0.50;99.90
39347;DHT22;26262;49.836;6.632;2023-02-27T00:57:18;-0.50;99.90
39347;DHT22;26262;49.836;6.632;2023-02-27T00:59:43;-0.60;99.90
39347;DHT22;26262;49.836;6.632;2023-02-27T01:02:09;-0.70;99.90
39347;DHT22;26262;49.836;6.632;2023-02-27T01:04:35;-0.60;99.90
39347;DHT22;26262;49.836;6.632;2023-02-27T01:07:00;-0.60;99.90
39347;DHT22;26262;49.836;6.632;2023-02-27T01:09:26;-0.60;99.90
39347;DHT22;26262;49.836;6.632;2023-02-27T01:11:52;-0.50;99.90
39347;DHT22;26262;49.836;6.632;2023-02-27T01:14:17;-0.50;99.90
39347;DHT22;26262;49.836;6.632;2023-02-27T01:16:43;-0.50;99.90
39347;DHT22;26262;49.836;6.632;2023-02-27T01:19:09;-0.40;99.90
39347;DHT22;26262;49.836;6.632;2023-02-27T01:21:34;-0.50;99.90
39347;DHT22;26262;49.836;6.632;2023-02-27T01:24:00;-0.50;99.90
39347;DHT22;26262;49.836;6.632;2023-02-27T01:26:26;-0.50;99.90
39347;DHT22;26262;49.836;6.632;2023-02-27T01:28:51;-0.50;99.90
39347;DHT22;26262;49.836;6.632;2023-02-27T01:31:17;-0.60;99.90
39347;DHT22;26262;49.836;6.632;2023-02-27T01:33:42;-0.60;99.90
39347;DHT22;26262;49.836;6.632;2023-02-27T01:36:08;-0.60;99.90
39347;DHT22;26262;49.836;6.632;2023-02-27T01:38:34;-0.50;99.90
39347;DHT22;26262;49.836;6.632;2023-02-27T01:41:00;-0.50;99.90
39347;DHT22;26262;49.836;6.632;2023-02-27T01:43:26;-0.40;99.90
39347;DHT22;26262;49.836;6.632;2023-02-27T01:45:52;-0.40;99.90
39347;DHT22;26262;49.836;6.632;2023-02-27T01:48:24;-0.40;99.90
39347;DHT22;26262;49.836;6.632;2023-02-27T01:51:13;-0.50;99.90
39347;DHT22;26262;49.836;6.632;2023-02-27T01:53:42;-0.50;99.90
39347;DHT22;26262;49.836;6.632;2023-02-27T01:56:16;-0.50;99.90
39347;DHT22;26262;49.836;6.632;2023-02-27T01:58:43;-0.40;99.90
39347;DHT22;26262;49.836;6.632;2023-02-27T02:01:10;-0.50;99.90
39347;DHT22;26262;49.836;6.632;2023-02-27T02:03:45;-0.50;99.90
39347;DHT22;26262;49.836;6.632;2023-02-27T02:06:12;-0.50;99.90
39347;DHT22;26262;49.836;6.632;2023-02-27T02:08:41;-0.50;99.90
39347;DHT22;26262;49.836;6.632;2023-02-27T02:11:09;-0.40;99.90
39347;DHT22;26262;49.836;6.632;2023-02-27T02:13:36;-0.50;99.90
39347;DHT22;26262;49.836;6.632;2023-02-27T02:37:06;-0.50;99.90
39347;DHT22;26262;49.836;6.632;2023-02-27T02:39:53;-0.50;99.90
39347;DHT22;26262;49.836;6.632;2023-02-27T02:42:26;-0.60;99.90
39347;DHT22;26262;49.836;6.632;2023-02-27T02:48:13;-0.40;99.90
39347;DHT22;26262;49.836;6.632;2023-02-27T02:50:49;-0.40;99.90
39347;DHT22;26262;49.836;6.632;2023-02-27T02:56:40;-0.40;99.90
39347;DHT22;26262;49.836;6.632;2023-02-27T02:59:32;-0.40;99.90
39347;DHT22;26262;49.836;6.632;2023-02-27T03:02:14;-0.50;99.90
39347;DHT22;26262;49.836;6.632;2023-02-27T03:05:09;-0.60;99.90
39347;DHT22;26262;49.836;6.632;2023-02-27T03:07:41;-0.60;99.90
39347;DHT22;26262;49.836;6.632;2023-02-27T03:10:18;-0.50;99.90
39347;DHT22;26262;49.836;6.632;2023-02-27T03:12:50;-0.60;99.90
39347;DHT22;26262;49.836;6.632;2023-02-27T03:15:24;-0.60;99.90
39347;DHT22;26262;49.836;6.632;2023-02-27T03:18:07;-0.60;99.90
39347;DHT22;26262;49.836;6.632;2023-02-27T03:20:40;-0.60;99.90
39347;DHT22;26262;49.836;6.632;2023-02-27T03:23:14;-0.60;99.90
39347;DHT22;26262;49.836;6.632;2023-02-27T03:25:42;-0.70;99.90
39347;DHT22;26262;49.836;6.632;2023-02-27T03:28:14;-0.70;99.90
39347;DHT22;26262;49.836;6.632;2023-02-27T03:30:50;-0.70;99.90
39347;DHT22;26262;49.836;6.632;2023-02-27T03:33:44;-0.70;99.90
39347;DHT22;26262;49.836;6.632;2023-02-27T03:36:37;-0.60;99.90
39347;DHT22;26262;49.836;6.632;2023-02-27T03:39:10;-0.90;99.90
39347;DHT22;26262;49.836;6.632;2023-02-27T03:42:01;-0.80;99.90
39347;DHT22;26262;49.836;6.632;2023-02-27T03:47:23;-0.80;99.90
39347;DHT22;26262;49.836;6.632;2023-02-27T03:49:49;-1.00;99.90
39347;DHT22;26262;49.836;6.632;2023-02-27T03:52:19;-0.90;99.90
39347;DHT22;26262;49.836;6.632;2023-02-27T03:54:52;-0.80;99.90
39347;DHT22;26262;49.836;6.632;2023-02-27T03:57:18;-0.80;99.90
39347;DHT22;26262;49.836;6.632;2023-02-27T03:59:44;-0.80;99.90
39347;DHT22;26262;49.836;6.632;2023-02-27T04:02:10;-0.70;99.90
39347;DHT22;26262;49.836;6.632;2023-02-27T04:04:36;-0.70;99.90
39347;DHT22;26262;49.836;6.632;2023-02-27T04:10:13;-0.60;99.90
39347;DHT22;26262;49.836;6.632;2023-02-27T04:12:59;-0.70;99.90
39347;DHT22;26262;49.836;6.632;2023-02-27T04:16:29;-0.70;99.90
39347;DHT22;26262;49.836;6.632;2023-02-27T04:21:26;-0.70;99.90
39347;DHT22;26262;49.836;6.632;2023-02-27T04:24:48;-0.70;99.90
39347;DHT22;26262;49.836;6.632;2023-02-27T04:32:40;-0.70;99.90
39347;DHT22;26262;49.836;6.632;2023-02-27T04:35:21;-0.80;99.90
39347;DHT22;26262;49.836;6.632;2023-02-27T04:37:56;-0.80;99.90
39347;DHT22;26262;49.836;6.632;2023-02-27T04:40:39;-0.70;99.90
39347;DHT22;26262;49.836;6.632;2023-02-27T04:43:09;-0.70;99.90
39347;DHT22;26262;49.836;6.632;2023-02-27T04:45:38;-0.70;99.90
39347;DHT22;26262;49.836;6.632;2023-02-27T04:48:13;-0.70;99.90
39347;DHT22;26262;49.836;6.632;2023-02-27T04:50:48;-0.70;99.90
39347;DHT22;26262;49.836;6.632;2023-02-27T04:53:30;-0.70;99.90
39347;DHT22;26262;49.836;6.632;2023-02-27T04:56:04;-0.70;99.90
39347;DHT22;26262;49.836;6.632;2023-02-27T04:58:38;-0.70;99.90
39347;DHT22;26262;49.836;6.632;2023-02-27T05:01:13;-0.70;99.90
39347;DHT22;26262;49.836;6.632;2023-02-27T05:03:45;-0.80;99.90
39347;DHT22;26262;49.836;6.632;2023-02-27T05:06:14;-0.80;99.90
39347;DHT22;26262;49.836;6.632;2023-02-27T05:08:56;-0.80;99.90
39347;DHT22;26262;49.836;6.632;2023-02-27T05:11:30;-0.90;99.90
39347;DHT22;26262;49.836;6.632;2023-02-27T05:14:17;-0.80;99.90
39347;DHT22;26262;49.836;6.632;2023-02-27T05:19:31;-0.90;99.90
39347;DHT22;26262;49.836;6.632;2023-02-27T05:27:31;-0.80;99.90
39347;DHT22;26262;49.836;6.632;2023-02-27T05:30:06;-0.80;99.90
39347;DHT22;26262;49.836;6.632;2023-02-27T05:32:44;-0.80;99.90
39347;DHT22;26262;49.836;6.632;2023-02-27T05:37:48;-0.70;99.90
39347;DHT22;26262;49.836;6.632;2023-02-27T05:40:25;-0.80;99.90
39347;DHT22;26262;49.836;6.632;2023-02-27T05:43:01;-0.80;99.90
39347;DHT22;26262;49.836;6.632;2023-02-27T05:45:30;-0.90;99.90
39347;DHT22;26262;49.836;6.632;2023-02-27T05:48:24;-0.90;99.90
39347;DHT22;26262;49.836;6.632;2023-02-27T05:50:51;-0.90;99.90
39347;DHT22;26262;49.836;6.632;2023-02-27T05:53:20;-1.00;99.90
39347;DHT22;26262;49.836;6.632;2023-02-27T05:55:53;-0.90;99.90
39347;DHT22;26262;49.836;6.632;2023-02-27T05:58:29;-0.90;99.90
39347;DHT22;26262;49.836;6.632;2023-02-27T06:01:02;-0.90;99.90
39347;DHT22;26262;49.836;6.632;2023-02-27T06:03:30;-1.00;99.90
39347;DHT22;26262;49.836;6.632;2023-02-27T06:05:58;-1.00;99.90
39347;DHT22;26262;49.836;6.632;2023-02-27T06:08:24;-1.00;99.90
39347;DHT22;26262;49.836;6.632;2023-02-27T06:10:50;-1.00;99.90
39347;DHT22;26262;49.836;6.632;2023-02-27T06:13:16;-1.00;99.90
39347;DHT22;26262;49.836;6.632;2023-02-27T06:15:44;-1.00;99.90
39347;DHT22;26262;49.836;6.632;2023-02-27T06:18:11;-1.00;99.90
39347;DHT22;26262;49.836;6.632;2023-02-27T06:20:37;-1.00;99.90
39347;DHT22;26262;49.836;6.632;2023-02-27T06:23:03;-1.00;99.90
39347;DHT22;26262;49.836;6.632;2023-02-27T06:25:29;-0.90;99.90
39347;DHT22;26262;49.836;6.632;2023-02-27T06:27:54;-0.80;99.90
39347;DHT22;26262;49.836;6.632;2023-02-27T06:30:20;-0.80;99.90
39347;DHT22;26262;49.836;6.632;2023-02-27T06:32:45;-0.90;99.90
39347;DHT22;26262;49.836;6.632;2023-02-27T06:35:11;-1.00;99.90
39347;DHT22;26262;49.836;6.632;2023-02-27T06:37:37;-1.10;99.90
39347;DHT22;26262;49.836;6.632;2023-02-27T06:40:03;-1.00;99.90
39347;DHT22;26262;49.836;6.632;2023-02-27T06:42:30;-1.00;99.90
39347;DHT22;26262;49.836;6.632;2023-02-27T06:44:56;-1.00;99.90
39347;DHT22;26262;49.836;6.632;2023-02-27T06:47:21;-0.90;99.90
39347;DHT22;26262;49.836;6.632;2023-02-27T06:49:47;-1.00;99.90
39347;DHT22;26262;49.836;6.632;2023-02-27T06:52:12;-1.00;99.90
39347;DHT22;26262;49.836;6.632;2023-02-27T06:54:38;-1.00;99.90
39347;DHT22;26262;49.836;6.632;2023-02-27T06:57:03;-1.00;99.90
39347;DHT22;26262;49.836;6.632;2023-02-27T06:59:29;-1.00;99.90
39347;DHT22;26262;49.836;6.632;2023-02-27T07:01:55;-1.00;99.90
39347;DHT22;26262;49.836;6.632;2023-02-27T07:04:20;-1.00;99.90
39347;DHT22;26262;49.836;6.632;2023-02-27T07:06:46;-1.00;99.90
39347;DHT22;26262;49.836;6.632;2023-02-27T07:09:12;-1.00;99.90
39347;DHT22;26262;49.836;6.632;2023-02-27T07:11:37;-1.00;99.90
39347;DHT22;26262;49.836;6.632;2023-02-27T07:14:03;-0.90;99.90
39347;DHT22;26262;49.836;6.632;2023-02-27T07:16:28;-0.80;99.90
39347;DHT22;26262;49.836;6.632;2023-02-27T07:18:54;-0.80;99.90
39347;DHT22;26262;49.836;6.632;2023-02-27T07:21:19;-0.80;99.90
39347;DHT22;26262;49.836;6.632;2023-02-27T07:23:45;-0.80;99.90
39347;DHT22;26262;49.836;6.632;2023-02-27T07:26:10;-0.80;99.90
39347;DHT22;26262;49.836;6.632;2023-02-27T07:28:36;-0.80;99.90
39347;DHT22;26262;49.836;6.632;2023-02-27T07:31:01;-0.70;99.90
39347;DHT22;26262;49.836;6.632;2023-02-27T07:33:27;-0.70;99.90
39347;DHT22;26262;49.836;6.632;2023-02-27T07:35:53;-0.60;99.90
39347;DHT22;26262;49.836;6.632;2023-02-27T07:38:18;-0.60;99.90
39347;DHT22;26262;49.836;6.632;2023-02-27T07:40:46;-0.50;99.90
39347;DHT22;26262;49.836;6.632;2023-02-27T07:43:12;-0.40;99.90
39347;DHT22;26262;49.836;6.632;2023-02-27T07:45:38;-0.40;99.90
39347;DHT22;26262;49.836;6.632;2023-02-27T07:48:04;-0.40;99.90
39347;DHT22;26262;49.836;6.632;2023-02-27T07:50:29;-0.40;99.90
39347;DHT22;26262;49.836;6.632;2023-02-27T07:52:55;-0.40;99.90
39347;DHT22;26262;49.836;6.632;2023-02-27T07:55:20;-0.30;99.90
39347;DHT22;26262;49.836;6.632;2023-02-27T07:57:46;-0.30;99.90
39347;DHT22;26262;49.836;6.632;2023-02-27T08:00:12;-0.20;99.90
39347;DHT22;26262;49.836;6.632;2023-02-27T08:02:38;-0.10;99.90
39347;DHT22;26262;49.836;6.632;2023-02-27T08:05:04;-0.10;99.90
39347;DHT22;26262;49.836;6.632;2023-02-27T08:07:30;0.00;99.90
39347;DHT22;26262;49.836;6.632;2023-02-27T08:09:55;0.00;99.90
39347;DHT22;26262;49.836;6.632;2023-02-27T08:12:21;0.10;99.90
39347;DHT22;26262;49.836;6.632;2023-02-27T08:14:47;0.10;99.90
39347;DHT22;26262;49.836;6.632;2023-02-27T08:17:12;0.10;99.90
39347;DHT22;26262;49.836;6.632;2023-02-27T08:19:38;0.20;99.90
39347;DHT22;26262;49.836;6.632;2023-02-27T08:22:04;0.20;99.90
39347;DHT22;26262;49.836;6.632;2023-02-27T08:24:29;0.20;99.90
39347;DHT22;26262;49.836;6.632;2023-02-27T08:26:55;0.30;99.90
39347;DHT22;26262;49.836;6.632;2023-02-27T08:29:21;0.40;99.90
39347;DHT22;26262;49.836;6.632;2023-02-27T08:31:47;0.50;99.90
39347;DHT22;26262;49.836;6.632;2023-02-27T08:34:13;0.60;99.90
39347;DHT22;26262;49.836;6.632;2023-02-27T08:36:39;0.60;99.90
39347;DHT22;26262;49.836;6.632;2023-02-27T08:39:05;0.70;99.90
39347;DHT22;26262;49.836;6.632;2023-02-27T08:41:32;0.80;99.90
39347;DHT22;26262;49.836;6.632;2023-02-27T08:43:57;0.90;99.90
39347;DHT22;26262;49.836;6.632;2023-02-27T08:46:23;1.00;99.90
39347;DHT22;26262;49.836;6.632;2023-02-27T08:48:49;1.10;99.90
39347;DHT22;26262;49.836;6.632;2023-02-27T08:51:14;1.20;99.90
39347;DHT22;26262;49.836;6.632;2023-02-27T08:53:40;1.20;99.90
39347;DHT22;26262;49.836;6.632;2023-02-27T08:56:06;1.30;99.90
39347;DHT22;26262;49.836;6.632;2023-02-27T08:58:31;1.40;99.90
39347;DHT22;26262;49.836;6.632;2023-02-27T09:00:57;1.50;99.90
39347;DHT22;26262;49.836;6.632;2023-02-27T09:03:22;1.60;99.90
39347;DHT22;26262;49.836;6.632;2023-02-27T09:05:53;1.60;99.90
39347;DHT22;26262;49.836;6.632;2023-02-27T09:08:18;1.60;99.90
39347;DHT22;26262;49.836;6.632;2023-02-27T09:10:44;1.70;99.90
39347;DHT22;26262;49.836;6.632;2023-02-27T09:13:09;1.90;99.90
39347;DHT22;26262;49.836;6.632;2023-02-27T09:15:35;1.90;99.90
39347;DHT22;26262;49.836;6.632;2023-02-27T09:18:02;2.00;99.90
39347;DHT22;26262;49.836;6.632;2023-02-27T09:20:34;2.10;99.90
39347;DHT22;26262;49.836;6.632;2023-02-27T09:23:00;2.20;99.90
39347;DHT22;26262;49.836;6.632;2023-02-27T09:25:27;2.30;99.90
39347;DHT22;26262;49.836;6.632;2023-02-27T09:27:53;2.40;99.90
39347;DHT22;26262;49.836;6.632;2023-02-27T09:30:18;2.60;99.90
39347;DHT22;26262;49.836;6.632;2023-02-27T09:32:44;2.80;99.90
39347;DHT22;26262;49.836;6.632;2023-02-27T09:35:10;2.90;99.90
39347;DHT22;26262;49.836;6.632;2023-02-27T09:37:35;3.20;99.90
39347;DHT22;26262;49.836;6.632;2023-02-27T09:40:01;3.60;99.90
39347;DHT22;26262;49.836;6.632;2023-02-27T09:42:35;3.90;99.90
39347;DHT22;26262;49.836;6.632;2023-02-27T09:45:04;4.30;99.50
39347;DHT22;26262;49.836;6.632;2023-02-27T09:47:36;4.60;98.50
39347;DHT22;26262;49.836;6.632;2023-02-27T09:52:51;5.30;97.00
39347;DHT22;26262;49.836;6.632;2023-02-27T09:55:20;5.70;96.80
39347;DHT22;26262;49.836;6.632;2023-02-27T09:57:58;5.90;95.70
39347;DHT22;26262;49.836;6.632;2023-02-27T10:06:24;6.50;94.20
39347;DHT22;26262;49.836;6.632;2023-02-27T10:16:58;7.60;91.60
39347;DHT22;26262;49.836;6.632;2023-02-27T10:19:31;8.10;90.60
39347;DHT22;26262;49.836;6.632;2023-02-27T10:21:58;8.40;91.10
39347;DHT22;26262;49.836;6.632;2023-02-27T10:24:28;8.60;88.30
39347;DHT22;26262;49.836;6.632;2023-02-27T10:27:00;8.70;88.50
39347;DHT22;26262;49.836;6.632;2023-02-27T10:29:31;9.10;88.10
39347;DHT22;26262;49.836;6.632;2023-02-27T10:34:34;9.00;84.50
39347;DHT22;26262;49.836;6.632;2023-02-27T10:37:02;8.60;82.00
39347;DHT22;26262;49.836;6.632;2023-02-27T10:39:41;9.10;84.30
39347;DHT22;26262;49.836;6.632;2023-02-27T10:42:11;9.60;83.80
39347;DHT22;26262;49.836;6.632;2023-02-27T10:44:38;9.50;81.30
39347;DHT22;26262;49.836;6.632;2023-02-27T10:47:04;9.30;81.60
39347;DHT22;26262;49.836;6.632;2023-02-27T10:49:31;9.70;82.10
39347;DHT22;26262;49.836;6.632;2023-02-27T10:52:10;10.00;81.60
39347;DHT22;26262;49.836;6.632;2023-02-27T10:54:36;9.90;78.20
39347;DHT22;26262;49.836;6.632;2023-02-27T10:57:06;9.90;80.00
39347;DHT22;26262;49.836;6.632;2023-02-27T10:59:52;10.20;79.60
39347;DHT22;26262;49.836;6.632;2023-02-27T11:02:24;10.30;78.30
39347;DHT22;26262;49.836;6.632;2023-02-27T11:04:52;10.30;76.30
39347;DHT22;26262;49.836;6.632;2023-02-27T11:07:27;10.10;78.50
39347;DHT22;26262;49.836;6.632;2023-02-27T11:12:37;9.90;76.80
39347;DHT22;26262;49.836;6.632;2023-02-27T11:15:21;9.60;77.70
39347;DHT22;26262;49.836;6.632;2023-02-27T11:17:47;9.60;77.50
39347;DHT22;26262;49.836;6.632;2023-02-27T11:20:33;9.80;77.20
39347;DHT22;26262;49.836;6.632;2023-02-27T11:23:14;10.40;78.10
39347;DHT22;26262;49.836;6.632;2023-02-27T11:25:41;10.40;75.50
39347;DHT22;26262;49.836;6.632;2023-02-27T11:28:27;10.10;77.30
39347;DHT22;26262;49.836;6.632;2023-02-27T11:31:20;10.00;77.20
39347;DHT22;26262;49.836;6.632;2023-02-27T11:33:56;10.70;77.30
39347;DHT22;26262;49.836;6.632;2023-02-27T11:36:22;10.90;75.10
39347;DHT22;26262;49.836;6.632;2023-02-27T11:38:55;10.90;78.10
39347;DHT22;26262;49.836;6.632;2023-02-27T11:41:32;10.80;77.20
39347;DHT22;26262;49.836;6.632;2023-02-27T11:43:59;11.30;76.20
39347;DHT22;26262;49.836;6.632;2023-02-27T11:46:26;11.40;76.90
39347;DHT22;26262;49.836;6.632;2023-02-27T11:52:12;11.50;76.00
39347;DHT22;26262;49.836;6.632;2023-02-27T11:54:48;10.80;76.40
39347;DHT22;26262;49.836;6.632;2023-02-27T11:57:32;10.70;77.40
39347;DHT22;26262;49.836;6.632;2023-02-27T12:05:45;11.00;75.90
39347;DHT22;26262;49.836;6.632;2023-02-27T12:13:50;10.60;75.80
39347;DHT22;26262;49.836;6.632;2023-02-27T12:16:20;10.50;75.10
39347;DHT22;26262;49.836;6.632;2023-02-27T12:18:48;10.30;76.20
39347;DHT22;26262;49.836;6.632;2023-02-27T12:21:22;10.00;75.60
39347;DHT22;26262;49.836;6.632;2023-02-27T12:26:42;10.70;75.60
39347;DHT22;26262;49.836;6.632;2023-02-27T12:29:25;11.00;74.50
39347;DHT22;26262;49.836;6.632;2023-02-27T12:32:02;11.40;73.80
39347;DHT22;26262;49.836;6.632;2023-02-27T12:37:11;11.10;73.50
39347;DHT22;26262;49.836;6.632;2023-02-27T12:39:39;11.20;75.90
39347;DHT22;26262;49.836;6.632;2023-02-27T12:42:34;11.10;74.50
39347;DHT22;26262;49.836;6.632;2023-02-27T12:45:07;11.30;74.90
39347;DHT22;26262;49.836;6.632;2023-02-27T12:47:45;11.20;76.90
39347;DHT22;26262;49.836;6.632;2023-02-27T12:50:21;11.60;74.80
39347;DHT22;26262;49.836;6.632;2023-02-27T12:55:56;12.30;73.20
39347;DHT22;26262;49.836;6.632;2023-02-27T13:01:00;12.10;74.00
39347;DHT22;26262;49.836;6.632;2023-02-27T13:03:50;12.60;73.90
39347;DHT22;26262;49.836;6.632;2023-02-27T13:06:21;12.30;71.50
39347;DHT22;26262;49.836;6.632;2023-02-27T13:09:11;11.90;73.60
39347;DHT22;26262;49.836;6.632;2023-02-27T13:11:59;12.30;71.60
39347;DHT22;26262;49.836;6.632;2023-02-27T13:17:36;12.50;70.80
39347;DHT22;26262;49.836;6.632;2023-02-27T13:20:04;12.70;69.10
39347;DHT22;26262;49.836;6.632;2023-02-27T13:25:10;13.10;70.70
39347;DHT22;26262;49.836;6.632;2023-02-27T13:27:51;13.10;69.10
39347;DHT22;26262;49.836;6.632;2023-02-27T13:30:35;12.40;69.90
39347;DHT22;26262;49.836;6.632;2023-02-27T13:38:49;11.60;71.20
39347;DHT22;26262;49.836;6.632;2023-02-27T13:41:33;11.50;71.60
39347;DHT22;26262;49.836;6.632;2023-02-27T13:46:44;12.00;69.20
39347;DHT22;26262;49.836;6.632;2023-02-27T13:49:24;12.30;69.70
39347;DHT22;26262;49.836;6.632;2023-02-27T13:51:51;12.00;70.10
39347;DHT22;26262;49.836;6.632;2023-02-27T13:54:20;11.90;70.60
39347;DHT22;26262;49.836;6.632;2023-02-27T13:59:29;11.90;68.70
39347;DHT22;26262;49.836;6.632;2023-02-27T14:02:04;12.10;69.80
39347;DHT22;26262;49.836;6.632;2023-02-27T14:04:49;11.90;71.10
39347;DHT22;26262;49.836;6.632;2023-02-27T14:07:18;12.00;68.10
39347;DHT22;26262;49.836;6.632;2023-02-27T14:09:48;12.20;67.40
39347;DHT22;26262;49.836;6.632;2023-02-27T14:12:35;11.90;69.80
39347;DHT22;26262;49.836;6.632;2023-02-27T14:15:52;12.00;68.30
39347;DHT22;26262;49.836;6.632;2023-02-27T14:17:55;12.00;69.20
39347;DHT22;26262;49.836;6.632;2023-02-27T14:25:51;12.80;65.20
39347;DHT22;26262;49.836;6.632;2023-02-27T14:31:21;12.40;68.40
39347;DHT22;26262;49.836;6.632;2023-02-27T14:33:50;12.20;66.70
39347;DHT22;26262;49.836;6.632;2023-02-27T14:38:47;11.70;66.20
39347;DHT22;26262;49.836;6.632;2023-02-27T14:43:58;11.40;68.80
39347;DHT22;26262;49.836;6.632;2023-02-27T14:46:35;10.60;68.20
39347;DHT22;26262;49.836;6.632;2023-02-27T14:49:05;10.30;70.20
39347;DHT22;26262;49.836;6.632;2023-02-27T14:51:33;10.10;70.80
39347;DHT22;26262;49.836;6.632;2023-02-27T14:54:01;9.50;70.30
39347;DHT22;26262;49.836;6.632;2023-02-27T14:56:26;9.30;73.00
39347;DHT22;26262;49.836;6.632;2023-02-27T14:58:52;9.20;70.90
39347;DHT22;26262;49.836;6.632;2023-02-27T15:01:18;9.20;71.80
39347;DHT22;26262;49.836;6.632;2023-02-27T15:03:47;9.30;71.20
39347;DHT22;26262;49.836;6.632;2023-02-27T15:06:40;9.30;70.10
39347;DHT22;26262;49.836;6.632;2023-02-27T15:09:07;9.40;70.90
39347;DHT22;26262;49.836;6.632;2023-02-27T15:11:33;9.20;70.60
39347;DHT22;26262;49.836;6.632;2023-02-27T15:14:01;8.80;69.90
39347;DHT22;26262;49.836;6.632;2023-02-27T15:16:32;8.40;71.00
39347;DHT22;26262;49.836;6.632;2023-02-27T15:19:10;8.30;71.90
39347;DHT22;26262;49.836;6.632;2023-02-27T15:21:40;8.00;70.10
39347;DHT22;26262;49.836;6.632;2023-02-27T15:24:17;7.90;71.80
39347;DHT22;26262;49.836;6.632;2023-02-27T15:26:47;7.80;73.60
39347;DHT22;26262;49.836;6.632;2023-02-27T15:29:23;7.40;70.50
39347;DHT22;26262;49.836;6.632;2023-02-27T15:31:49;7.00;73.90
39347;DHT22;26262;49.836;6.632;2023-02-27T15:34:16;7.00;75.10
39347;DHT22;26262;49.836;6.632;2023-02-27T15:36:46;6.80;74.80
39347;DHT22;26262;49.836;6.632;2023-02-27T15:39:14;6.70;75.00
39347;DHT22;26262;49.836;6.632;2023-02-27T15:41:45;6.50;76.60
39347;DHT22;26262;49.836;6.632;2023-02-27T15:44:14;6.30;75.00
39347;DHT22;26262;49.836;6.632;2023-02-27T15:46:40;6.10;76.80
39347;DHT22;26262;49.836;6.632;2023-02-27T15:49:06;6.10;77.20
39347;DHT22;26262;49.836;6.632;2023-02-27T15:51:34;6.20;78.70
39347;DHT22;26262;49.836;6.632;2023-02-27T15:54:03;6.20;78.60
39347;DHT22;26262;49.836;6.632;2023-02-27T15:56:32;6.10;76.90
39347;DHT22;26262;49.836;6.632;2023-02-27T15:58:59;5.80;78.10
39347;DHT22;26262;49.836;6.632;2023-02-27T16:01:28;5.80;78.60
39347;DHT22;26262;49.836;6.632;2023-02-27T16:04:00;5.70;78.70
39347;DHT22;26262;49.836;6.632;2023-02-27T16:06:35;5.70;80.00
39347;DHT22;26262;49.836;6.632;2023-02-27T16:09:29;5.60;79.10
39347;DHT22;26262;49.836;6.632;2023-02-27T16:12:21;5.50;79.70
39347;DHT22;26262;49.836;6.632;2023-02-27T16:14:51;5.40;79.80
39347;DHT22;26262;49.836;6.632;2023-02-27T16:17:29;5.30;78.70
39347;DHT22;26262;49.836;6.632;2023-02-27T16:19:57;5.30;80.90
39347;DHT22;26262;49.836;6.632;2023-02-27T16:22:23;5.30;80.40
39347;DHT22;26262;49.836;6.632;2023-02-27T16:24:50;5.20;79.10
39347;DHT22;26262;49.836;6.632;2023-02-27T16:27:27;5.30;80.40
39347;DHT22;26262;49.836;6.632;2023-02-27T16:29:57;5.40;80.20
39347;DHT22;26262;49.836;6.632;2023-02-27T16:32:27;5.40;80.60
39347;DHT22;26262;49.836;6.632;2023-02-27T16:35:14;5.30;79.10
39347;DHT22;26262;49.836;6.632;2023-02-27T16:37:41;5.30;80.30
39347;DHT22;26262;49.836;6.632;2023-02-27T16:40:18;5.20;79.20
39347;DHT22;26262;49.836;6.632;2023-02-27T16:42:44;5.20;81.50
39347;DHT22;26262;49.836;6.632;2023-02-27T16:45:22;5.20;82.80
39347;DHT22;26262;49.836;6.632;2023-02-27T16:47:50;5.20;81.40
39347;DHT22;26262;49.836;6.632;2023-02-27T16:50:28;5.30;80.70
39347;DHT22;26262;49.836;6.632;2023-02-27T16:52:54;5.20;79.20
39347;DHT22;26262;49.836;6.632;2023-02-27T16:55:21;5.20;79.30
39347;DHT22;26262;49.836;6.632;2023-02-27T16:57:47;5.10;79.30
39347;DHT22;26262;49.836;6.632;2023-02-27T17:00:14;5.00;79.70
39347;DHT22;26262;49.836;6.632;2023-02-27T17:02:40;5.00;79.80
39347;DHT22;26262;49.836;6.632;2023-02-27T17:05:06;4.90;80.50
39347;DHT22;26262;49.836;6.632;2023-02-27T17:07:32;4.90;81.20
39347;DHT22;26262;49.836;6.632;2023-02-27T17:09:57;4.90;79.40
39347;DHT22;26262;49.836;6.632;2023-02-27T17:12:24;4.80;78.30
39347;DHT22;26262;49.836;6.632;2023-02-27T17:14:50;4.80;80.40
39347;DHT22;26262;49.836;6.632;2023-02-27T17:17:16;4.80;80.40
39347;DHT22;26262;49.836;6.632;2023-02-27T17:19:41;4.70;79.70
39347;DHT22;26262;49.836;6.632;2023-02-27T17:22:07;4.70;77.50
39347;DHT22;26262;49.836;6.632;2023-02-27T17:24:32;4.60;78.80
39347;DHT22;26262;49.836;6.632;2023-02-27T17:26:58;4.60;80.70
39347;DHT22;26262;49.836;6.632;2023-02-27T17:29:23;4.50;80.90
39347;DHT22;26262;49.836;6.632;2023-02-27T17:31:49;4.50;78.60
39347;DHT22;26262;49.836;6.632;2023-02-27T17:34:15;4.40;79.80
39347;DHT22;26262;49.836;6.632;2023-02-27T17:36:41;4.30;79.30
39347;DHT22;26262;49.836;6.632;2023-02-27T17:39:09;4.30;79.80
39347;DHT22;26262;49.836;6.632;2023-02-27T17:41:35;4.30;77.80
39347;DHT22;26262;49.836;6.632;2023-02-27T17:44:00;4.20;79.90
39347;DHT22;26262;49.836;6.632;2023-02-27T17:46:27;4.30;80.20
39347;DHT22;26262;49.836;6.632;2023-02-27T17:48:53;4.30;80.70
39347;DHT22;26262;49.836;6.632;2023-02-27T17:51:21;4.20;80.00
39347;DHT22;26262;49.836;6.632;2023-02-27T17:53:46;4.00;81.20
39347;DHT22;26262;49.836;6.632;2023-02-27T17:56:12;4.00;79.00
39347;DHT22;26262;49.836;6.632;2023-02-27T17:58:38;3.90;80.20
39347;DHT22;26262;49.836;6.632;2023-02-27T18:01:05;4.00;78.50
39347;DHT22;26262;49.836;6.632;2023-02-27T18:03:32;4.00;79.70
39347;DHT22;26262;49.836;6.632;2023-02-27T18:05:57;4.00;79.70
39347;DHT22;26262;49.836;6.632;2023-02-27T18:08:23;3.90;80.50